sensor_id;sensor_type;location;lat;lon;timestamp;temperature;humidity
3684;DHT22;1858;48.716;9.648;2023-04-03T00:01:24;4.90;1.00
3684;DHT22;1858;48.716;9.648;2023-04-03T00:03:52;5.00;1.00
3684;DHT22;1858;48.716;9.648;2023-04-03T00:06:21;4.90;1.00
3684;DHT22;1858;48.716;9.648;2023-04-03T00:08:50;4.80;1.00
3684;DHT22;1858;48.716;9.648;2023-04-03T00:11:18;4.80;1.00
3684;DHT22;1858;48.716;9.648;2023-04-03T00:13:47;4.80;1.00
3684;DHT22;1858;48.716;9.648;2023-04-03T00:16:16;4.80;1.00
3684;DHT22;1858;48.716;9.648;2023-04-03T00:18:44;4.80;1.00
3684;DHT22;1858;48.716;9.648;2023-04-03T00:21:13;4.80;1.00
3684;DHT22;1858;48.716;9.648;2023-04-03T00:23:43;4.80;1.00
3684;DHT22;1858;48.716;9.648;2023-04-03T00:26:11;4.80;1.00
3684;DHT22;1858;48.716;9.648;2023-04-03T00:28:40;4.80;1.00
3684;DHT22;1858;48.716;9.648;2023-04-03T00:31:08;4.60;1.00
3684;DHT22;1858;48.716;9.648;2023-04-03T00:33:37;4.60;1.00
3684;DHT22;1858;48.716;9.648;2023-04-03T00:36:07;4.50;1.00
3684;DHT22;1858;48.716;9.648;2023-04-03T00:38:36;4.50;1.00
3684;DHT22;1858;48.716;9.648;2023-04-03T00:41:05;4.50;1.00
3684;DHT22;1858;48.716;9.648;2023-04-03T00:43:33;4.60;1.00
3684;DHT22;1858;48.716;9.648;2023-04-03T00:46:02;4.50;1.00
3684;DHT22;1858;48.716;9.648;2023-04-03T00:48:33;4.40;1.00
3684;DHT22;1858;48.716;9.648;2023-04-03T00:51:04;4.50;1.00
3684;DHT22;1858;48.716;9.648;2023-04-03T00:53:37;4.60;1.00
3684;DHT22;1858;48.716;9.648;2023-04-03T00:56:07;4.60;1.00
3684;DHT22;1858;48.716;9.648;2023-04-03T00:58:50;4.50;1.00
3684;DHT22;1858;48.716;9.648;2023-04-03T01:01:16;4.60;1.00
3684;DHT22;1858;48.716;9.648;2023-04-03T01:03:45;4.60;1.00
3684;DHT22;1858;48.716;9.648;2023-04-03T01:06:16;4.60;1.00
3684;DHT22;1858;48.716;9.648;2023-04-03T01:08:45;4.60;1.00
3684;DHT22;1858;48.716;9.648;2023-04-03T01:11:15;4.70;1.00
3684;DHT22;1858;48.716;9.648;2023-04-03T01:13:43;4.70;1.00
3684;DHT22;1858;48.716;9.648;2023-04-03T01:16:12;4.60;1.00
3684;DHT22;1858;48.716;9.648;2023-04-03T01:18:41;4.70;1.00
3684;DHT22;1858;48.716;9.648;2023-04-03T01:24:27;4.80;1.00
3684;DHT22;1858;48.716;9.648;2023-04-03T01:26:51;4.90;1.00
3684;DHT22;1858;48.716;9.648;2023-04-03T01:29:19;4.80;1.00
3684;DHT22;1858;48.716;9.648;2023-04-03T01:31:56;4.80;1.00
3684;DHT22;1858;48.716;9.648;2023-04-03T01:34:26;4.90;1.00
3684;DHT22;1858;48.716;9.648;2023-04-03T01:36:55;4.90;1.00
3684;DHT22;1858;48.716;9.648;2023-04-03T01:39:23;4.90;1.00
3684;DHT22;1858;48.716;9.648;2023-04-03T01:41:52;4.90;1.00
3684;DHT22;1858;48.716;9.648;2023-04-03T01:44:21;4.90;1.00
3684;DHT22;1858;48.716;9.648;2023-04-03T01:46:49;4.80;1.00
3684;DHT22;1858;48.716;9.648;2023-04-03T01:49:17;4.90;1.00
3684;DHT22;1858;48.716;9.648;2023-04-03T01:51:46;4.90;1.00
3684;DHT22;1858;48.716;9.648;2023-04-03T01:54:14;4.80;1.00
3684;DHT22;1858;48.716;9.648;2023-04-03T01:56:42;4.80;1.00
3684;DHT22;1858;48.716;9.648;2023-04-03T01:59:11;4.60;1.00
3684;DHT22;1858;48.716;9.648;2023-04-03T02:01:39;4.60;1.00
3684;DHT22;1858;48.716;9.648;2023-04-03T02:04:08;4.50;1.00
3684;DHT22;1858;48.716;9.648;2023-04-03T02:06:36;4.60;1.00
3684;DHT22;1858;48.716;9.648;2023-04-03T02:09:04;4.60;1.00
3684;DHT22;1858;48.716;9.648;2023-04-03T02:11:33;4.50;1.00
3684;DHT22;1858;48.716;9.648;2023-04-03T02:14:01;4.50;1.00
3684;DHT22;1858;48.716;9.648;2023-04-03T02:16:30;4.60;1.00
3684;DHT22;1858;48.716;9.648;2023-04-03T02:18:58;4.60;1.00
3684;DHT22;1858;48.716;9.648;2023-04-03T02:21:27;4.60;1.00
3684;DHT22;1858;48.716;9.648;2023-04-03T02:23:55;4.60;1.00
3684;DHT22;1858;48.716;9.648;2023-04-03T02:26:23;4.60;1.00
3684;DHT22;1858;48.716;9.648;2023-04-03T02:28:53;4.70;1.00
3684;DHT22;1858;48.716;9.648;2023-04-03T02:31:21;4.60;1.00
3684;DHT22;1858;48.716;9.648;2023-04-03T02:33:49;4.70;1.00
3684;DHT22;1858;48.716;9.648;2023-04-03T02:36:18;4.80;1.00
3684;DHT22;1858;48.716;9.648;2023-04-03T02:38:46;4.90;1.00
3684;DHT22;1858;48.716;9.648;2023-04-03T02:41:15;4.80;1.00
3684;DHT22;1858;48.716;9.648;2023-04-03T02:43:44;4.80;1.00
3684;DHT22;1858;48.716;9.648;2023-04-03T02:46:12;4.70;1.00
3684;DHT22;1858;48.716;9.648;2023-04-03T02:48:42;4.70;1.00
3684;DHT22;1858;48.716;9.648;2023-04-03T02:51:11;4.60;1.00
3684;DHT22;1858;48.716;9.648;2023-04-03T02:53:39;4.70;1.00
3684;DHT22;1858;48.716;9.648;2023-04-03T02:56:07;4.70;1.00
3684;DHT22;1858;48.716;9.648;2023-04-03T02:58:36;4.70;1.00
3684;DHT22;1858;48.716;9.648;2023-04-03T03:01:04;4.80;1.00
3684;DHT22;1858;48.716;9.648;2023-04-03T03:03:33;4.80;1.00
3684;DHT22;1858;48.716;9.648;2023-04-03T03:06:03;4.90;1.00
3684;DHT22;1858;48.716;9.648;2023-04-03T03:08:32;4.90;1.00
3684;DHT22;1858;48.716;9.648;2023-04-03T03:11:00;5.00;1.00
3684;DHT22;1858;48.716;9.648;2023-04-03T03:13:29;5.00;1.00
3684;DHT22;1858;48.716;9.648;2023-04-03T03:15:58;5.00;1.00
3684;DHT22;1858;48.716;9.648;2023-04-03T03:18:27;5.00;1.00
3684;DHT22;1858;48.716;9.648;2023-04-03T03:20:57;5.10;1.00
3684;DHT22;1858;48.716;9.648;2023-04-03T03:23:27;5.00;1.00
3684;DHT22;1858;48.716;9.648;2023-04-03T03:25:58;5.10;1.00
3684;DHT22;1858;48.716;9.648;2023-04-03T03:28:27;5.10;1.00
3684;DHT22;1858;48.716;9.648;2023-04-03T03:30:57;5.20;1.00
3684;DHT22;1858;48.716;9.648;2023-04-03T03:33:26;5.20;1.00
3684;DHT22;1858;48.716;9.648;2023-04-03T03:35:55;5.30;1.00
3684;DHT22;1858;48.716;9.648;2023-04-03T03:38:24;5.30;1.00
3684;DHT22;1858;48.716;9.648;2023-04-03T03:40:52;5.20;1.00
3684;DHT22;1858;48.716;9.648;2023-04-03T03:43:20;5.20;1.00
3684;DHT22;1858;48.716;9.648;2023-04-03T03:45:52;5.20;1.00
3684;DHT22;1858;48.716;9.648;2023-04-03T03:48:21;5.20;1.00
3684;DHT22;1858;48.716;9.648;2023-04-03T03:50:49;5.20;1.00
3684;DHT22;1858;48.716;9.648;2023-04-03T03:53:18;5.20;1.00
3684;DHT22;1858;48.716;9.648;2023-04-03T03:55:46;5.20;1.00
3684;DHT22;1858;48.716;9.648;2023-04-03T03:58:15;5.20;1.00
3684;DHT22;1858;48.716;9.648;2023-04-03T04:00:43;5.20;1.00
3684;DHT22;1858;48.716;9.648;2023-04-03T04:03:11;5.30;1.00
3684;DHT22;1858;48.716;9.648;2023-04-03T04:05:40;5.30;1.00
3684;DHT22;1858;48.716;9.648;2023-04-03T04:08:08;5.30;1.00
3684;DHT22;1858;48.716;9.648;2023-04-03T04:10:38;5.30;1.00
3684;DHT22;1858;48.716;9.648;2023-04-03T04:13:06;5.30;1.00
3684;DHT22;1858;48.716;9.648;2023-04-03T04:15:34;5.30;1.00
3684;DHT22;1858;48.716;9.648;2023-04-03T04:18:03;5.30;1.00
3684;DHT22;1858;48.716;9.648;2023-04-03T04:20:31;5.30;1.00
3684;DHT22;1858;48.716;9.648;2023-04-03T04:23:00;5.40;1.00
3684;DHT22;1858;48.716;9.648;2023-04-03T04:25:28;5.30;1.00
3684;DHT22;1858;48.716;9.648;2023-04-03T04:27:57;5.30;1.00
3684;DHT22;1858;48.716;9.648;2023-04-03T04:30:25;5.30;1.00
3684;DHT22;1858;48.716;9.648;2023-04-03T04:32:54;5.40;1.00
3684;DHT22;1858;48.716;9.648;2023-04-03T04:35:23;5.30;1.00
3684;DHT22;1858;48.716;9.648;2023-04-03T04:37:51;5.30;1.00
3684;DHT22;1858;48.716;9.648;2023-04-03T04:40:20;5.30;1.00
3684;DHT22;1858;48.716;9.648;2023-04-03T04:42:48;5.20;1.00
3684;DHT22;1858;48.716;9.648;2023-04-03T04:45:17;5.20;1.00
3684;DHT22;1858;48.716;9.648;2023-04-03T04:47:46;5.20;1.00
3684;DHT22;1858;48.716;9.648;2023-04-03T04:50:14;5.20;1.00
3684;DHT22;1858;48.716;9.648;2023-04-03T04:52:43;5.20;1.00
3684;DHT22;1858;48.716;9.648;2023-04-03T04:55:14;5.20;1.00
3684;DHT22;1858;48.716;9.648;2023-04-03T04:57:43;5.10;1.00
3684;DHT22;1858;48.716;9.648;2023-04-03T05:00:12;5.10;1.00
3684;DHT22;1858;48.716;9.648;2023-04-03T05:02:41;5.00;1.00
3684;DHT22;1858;48.716;9.648;2023-04-03T05:05:10;4.80;1.00
3684;DHT22;1858;48.716;9.648;2023-04-03T05:07:42;4.60;1.00
3684;DHT22;1858;48.716;9.648;2023-04-03T05:10:14;4.60;1.00
3684;DHT22;1858;48.716;9.648;2023-04-03T05:12:45;4.60;1.00
3684;DHT22;1858;48.716;9.648;2023-04-03T05:15:19;4.40;1.00
3684;DHT22;1858;48.716;9.648;2023-04-03T05:17:45;4.40;1.00
3684;DHT22;1858;48.716;9.648;2023-04-03T05:20:13;4.30;1.00
3684;DHT22;1858;48.716;9.648;2023-04-03T05:22:43;4.20;1.00
3684;DHT22;1858;48.716;9.648;2023-04-03T05:25:13;4.20;1.00
3684;DHT22;1858;48.716;9.648;2023-04-03T05:27:42;4.10;1.00
3684;DHT22;1858;48.716;9.648;2023-04-03T05:30:11;4.10;1.00
3684;DHT22;1858;48.716;9.648;2023-04-03T05:32:40;4.00;1.00
3684;DHT22;1858;48.716;9.648;2023-04-03T05:35:09;4.10;1.00
3684;DHT22;1858;48.716;9.648;2023-04-03T05:37:39;4.10;1.00
3684;DHT22;1858;48.716;9.648;2023-04-03T05:40:09;4.10;1.00
3684;DHT22;1858;48.716;9.648;2023-04-03T05:42:38;4.10;1.00
3684;DHT22;1858;48.716;9.648;2023-04-03T05:45:07;4.20;1.00
3684;DHT22;1858;48.716;9.648;2023-04-03T05:47:37;4.10;1.00
3684;DHT22;1858;48.716;9.648;2023-04-03T05:50:07;4.20;1.00
3684;DHT22;1858;48.716;9.648;2023-04-03T05:52:38;4.20;1.00
3684;DHT22;1858;48.716;9.648;2023-04-03T05:55:08;4.20;1.00
3684;DHT22;1858;48.716;9.648;2023-04-03T05:57:37;4.20;1.00
3684;DHT22;1858;48.716;9.648;2023-04-03T06:00:07;4.30;1.00
3684;DHT22;1858;48.716;9.648;2023-04-03T06:02:38;4.30;1.00
3684;DHT22;1858;48.716;9.648;2023-04-03T06:05:08;4.40;1.00
3684;DHT22;1858;48.716;9.648;2023-04-03T06:07:38;4.40;1.00
3684;DHT22;1858;48.716;9.648;2023-04-03T06:10:08;4.50;1.00
3684;DHT22;1858;48.716;9.648;2023-04-03T06:12:37;4.60;1.00
3684;DHT22;1858;48.716;9.648;2023-04-03T06:15:06;4.70;1.00
3684;DHT22;1858;48.716;9.648;2023-04-03T06:17:37;4.80;1.00
3684;DHT22;1858;48.716;9.648;2023-04-03T06:20:06;4.80;1.00
3684;DHT22;1858;48.716;9.648;2023-04-03T06:22:35;4.80;1.00
3684;DHT22;1858;48.716;9.648;2023-04-03T06:25:04;4.90;1.00
3684;DHT22;1858;48.716;9.648;2023-04-03T06:27:33;4.90;1.00
3684;DHT22;1858;48.716;9.648;2023-04-03T06:30:02;4.90;1.00
3684;DHT22;1858;48.716;9.648;2023-04-03T06:32:33;5.00;1.00
3684;DHT22;1858;48.716;9.648;2023-04-03T06:35:01;5.10;1.00
3684;DHT22;1858;48.716;9.648;2023-04-03T06:37:31;5.20;1.00
3684;DHT22;1858;48.716;9.648;2023-04-03T06:40:00;5.20;1.00
3684;DHT22;1858;48.716;9.648;2023-04-03T06:42:30;5.10;1.00
3684;DHT22;1858;48.716;9.648;2023-04-03T06:44:59;5.30;1.00
3684;DHT22;1858;48.716;9.648;2023-04-03T06:47:28;5.40;1.00
3684;DHT22;1858;48.716;9.648;2023-04-03T06:50:00;5.60;1.00
3684;DHT22;1858;48.716;9.648;2023-04-03T06:52:29;5.50;1.00
3684;DHT22;1858;48.716;9.648;2023-04-03T06:55:01;5.60;1.00
3684;DHT22;1858;48.716;9.648;2023-04-03T06:57:29;5.60;1.00
3684;DHT22;1858;48.716;9.648;2023-04-03T06:59:58;5.80;1.00
3684;DHT22;1858;48.716;9.648;2023-04-03T07:02:27;5.90;1.00
3684;DHT22;1858;48.716;9.648;2023-04-03T07:04:56;6.10;1.00
3684;DHT22;1858;48.716;9.648;2023-04-03T07:07:25;6.20;1.00
3684;DHT22;1858;48.716;9.648;2023-04-03T07:09:54;6.20;1.00
3684;DHT22;1858;48.716;9.648;2023-04-03T07:12:23;6.40;1.40
3684;DHT22;1858;48.716;9.648;2023-04-03T07:14:53;6.40;99.90
3684;DHT22;1858;48.716;9.648;2023-04-03T07:17:21;6.50;99.90
3684;DHT22;1858;48.716;9.648;2023-04-03T07:19:50;6.70;99.90
3684;DHT22;1858;48.716;9.648;2023-04-03T07:22:19;6.50;99.90
3684;DHT22;1858;48.716;9.648;2023-04-03T07:24:48;6.80;99.90
3684;DHT22;1858;48.716;9.648;2023-04-03T07:27:17;7.50;99.90
3684;DHT22;1858;48.716;9.648;2023-04-03T07:29:46;7.90;99.90
3684;DHT22;1858;48.716;9.648;2023-04-03T07:32:16;8.50;99.90
3684;DHT22;1858;48.716;9.648;2023-04-03T07:34:44;8.60;99.90
3684;DHT22;1858;48.716;9.648;2023-04-03T07:37:13;8.50;99.90
3684;DHT22;1858;48.716;9.648;2023-04-03T07:39:43;8.40;99.90
3684;DHT22;1858;48.716;9.648;2023-04-03T07:42:12;8.40;99.90
3684;DHT22;1858;48.716;9.648;2023-04-03T07:44:41;8.40;99.90
3684;DHT22;1858;48.716;9.648;2023-04-03T07:47:10;8.40;99.90
3684;DHT22;1858;48.716;9.648;2023-04-03T07:49:38;8.30;99.90
3684;DHT22;1858;48.716;9.648;2023-04-03T07:52:07;8.70;99.90
3684;DHT22;1858;48.716;9.648;2023-04-03T07:54:37;10.10;99.90
3684;DHT22;1858;48.716;9.648;2023-04-03T07:57:05;12.20;99.90
3684;DHT22;1858;48.716;9.648;2023-04-03T07:59:36;13.90;99.90
3684;DHT22;1858;48.716;9.648;2023-04-03T08:02:04;15.70;99.90
3684;DHT22;1858;48.716;9.648;2023-04-03T08:04:33;16.40;99.90
3684;DHT22;1858;48.716;9.648;2023-04-03T08:07:02;17.30;99.90
3684;DHT22;1858;48.716;9.648;2023-04-03T08:09:33;18.30;99.90
3684;DHT22;1858;48.716;9.648;2023-04-03T08:12:02;18.80;99.90
3684;DHT22;1858;48.716;9.648;2023-04-03T08:14:32;19.30;99.90
3684;DHT22;1858;48.716;9.648;2023-04-03T08:17:03;19.50;99.90
3684;DHT22;1858;48.716;9.648;2023-04-03T08:19:32;19.70;99.90
3684;DHT22;1858;48.716;9.648;2023-04-03T08:22:04;19.60;99.90
3684;DHT22;1858;48.716;9.648;2023-04-03T08:24:35;19.20;99.90
3684;DHT22;1858;48.716;9.648;2023-04-03T08:27:04;17.90;99.90
3684;DHT22;1858;48.716;9.648;2023-04-03T08:29:35;17.00;99.90
3684;DHT22;1858;48.716;9.648;2023-04-03T08:32:05;16.30;99.90
3684;DHT22;1858;48.716;9.648;2023-04-03T08:34:33;15.50;99.90
3684;DHT22;1858;48.716;9.648;2023-04-03T08:37:04;14.70;99.90
3684;DHT22;1858;48.716;9.648;2023-04-03T08:39:38;14.20;99.90
3684;DHT22;1858;48.716;9.648;2023-04-03T08:42:11;13.80;99.90
3684;DHT22;1858;48.716;9.648;2023-04-03T08:45:01;13.70;99.90
3684;DHT22;1858;48.716;9.648;2023-04-03T08:47:38;12.80;99.90
3684;DHT22;1858;48.716;9.648;2023-04-03T08:50:15;12.40;99.90
3684;DHT22;1858;48.716;9.648;2023-04-03T08:52:52;11.90;99.90
3684;DHT22;1858;48.716;9.648;2023-04-03T09:00:47;11.20;99.90
3684;DHT22;1858;48.716;9.648;2023-04-03T09:03:20;11.10;99.90
3684;DHT22;1858;48.716;9.648;2023-04-03T09:06:21;11.10;99.90
3684;DHT22;1858;48.716;9.648;2023-04-03T09:18:04;10.80;99.90
3684;DHT22;1858;48.716;9.648;2023-04-03T09:22:47;10.90;99.90
3684;DHT22;1858;48.716;9.648;2023-04-03T09:27:53;11.10;99.90
3684;DHT22;1858;48.716;9.648;2023-04-03T09:30:24;11.30;99.90
3684;DHT22;1858;48.716;9.648;2023-04-03T09:32:56;12.20;99.90
3684;DHT22;1858;48.716;9.648;2023-04-03T09:35:37;13.00;99.90
3684;DHT22;1858;48.716;9.648;2023-04-03T09:40:44;13.40;99.90
3684;DHT22;1858;48.716;9.648;2023-04-03T09:43:21;13.10;99.90
3684;DHT22;1858;48.716;9.648;2023-04-03T09:45:51;12.00;99.90
3684;DHT22;1858;48.716;9.648;2023-04-03T09:48:23;12.20;99.90
3684;DHT22;1858;48.716;9.648;2023-04-03T09:50:55;12.20;99.90
3684;DHT22;1858;48.716;9.648;2023-04-03T09:53:40;12.10;99.90
3684;DHT22;1858;48.716;9.648;2023-04-03T10:01:26;10.40;99.90
3684;DHT22;1858;48.716;9.648;2023-04-03T10:06:41;10.00;99.90
3684;DHT22;1858;48.716;9.648;2023-04-03T10:14:35;9.30;99.90
3684;DHT22;1858;48.716;9.648;2023-04-03T10:22:56;9.40;99.90
3684;DHT22;1858;48.716;9.648;2023-04-03T10:25:32;9.40;99.90
3684;DHT22;1858;48.716;9.648;2023-04-03T10:28:05;9.40;99.90
3684;DHT22;1858;48.716;9.648;2023-04-03T10:30:56;9.50;99.90
3684;DHT22;1858;48.716;9.648;2023-04-03T10:33:28;9.60;99.90
3684;DHT22;1858;48.716;9.648;2023-04-03T10:39:24;9.60;99.90
3684;DHT22;1858;48.716;9.648;2023-04-03T10:42:00;9.60;99.90
3684;DHT22;1858;48.716;9.648;2023-04-03T10:50:38;9.40;99.90
3684;DHT22;1858;48.716;9.648;2023-04-03T10:56:27;9.40;99.90
3684;DHT22;1858;48.716;9.648;2023-04-03T11:01:31;9.30;99.90
3684;DHT22;1858;48.716;9.648;2023-04-03T11:04:03;9.30;99.90
3684;DHT22;1858;48.716;9.648;2023-04-03T11:06:45;9.40;99.90
3684;DHT22;1858;48.716;9.648;2023-04-03T11:09:37;8.90;99.90
3684;DHT22;1858;48.716;9.648;2023-04-03T11:12:18;8.60;99.90
3684;DHT22;1858;48.716;9.648;2023-04-03T11:14:48;8.50;99.90
3684;DHT22;1858;48.716;9.648;2023-04-03T11:17:35;8.70;99.90
3684;DHT22;1858;48.716;9.648;2023-04-03T11:20:16;8.60;99.90
3684;DHT22;1858;48.716;9.648;2023-04-03T11:22:51;8.60;99.90
3684;DHT22;1858;48.716;9.648;2023-04-03T11:25:22;8.80;99.90
3684;DHT22;1858;48.716;9.648;2023-04-03T11:28:09;9.00;99.90
3684;DHT22;1858;48.716;9.648;2023-04-03T11:30:49;9.20;99.90
3684;DHT22;1858;48.716;9.648;2023-04-03T11:36:09;9.50;99.90
3684;DHT22;1858;48.716;9.648;2023-04-03T11:38:42;9.50;99.90
3684;DHT22;1858;48.716;9.648;2023-04-03T11:41:11;9.40;99.90
3684;DHT22;1858;48.716;9.648;2023-04-03T11:43:59;9.40;99.90
3684;DHT22;1858;48.716;9.648;2023-04-03T11:49:56;9.30;99.90
3684;DHT22;1858;48.716;9.648;2023-04-03T11:58:11;9.10;99.90
3684;DHT22;1858;48.716;9.648;2023-04-03T12:03:56;9.40;99.90
3684;DHT22;1858;48.716;9.648;2023-04-03T12:08:47;9.40;99.90
3684;DHT22;1858;48.716;9.648;2023-04-03T12:16:54;9.60;99.90
3684;DHT22;1858;48.716;9.648;2023-04-03T12:19:35;9.70;99.90
3684;DHT22;1858;48.716;9.648;2023-04-03T12:22:06;9.70;99.90
3684;DHT22;1858;48.716;9.648;2023-04-03T12:24:39;9.80;99.90
3684;DHT22;1858;48.716;9.648;2023-04-03T12:27:29;10.00;99.90
3684;DHT22;1858;48.716;9.648;2023-04-03T12:43:39;9.70;99.90
3684;DHT22;1858;48.716;9.648;2023-04-03T12:46:14;9.90;99.90
3684;DHT22;1858;48.716;9.648;2023-04-03T12:48:49;9.90;99.90
3684;DHT22;1858;48.716;9.648;2023-04-03T12:51:28;10.00;99.90
3684;DHT22;1858;48.716;9.648;2023-04-03T12:54:18;10.00;99.90
3684;DHT22;1858;48.716;9.648;2023-04-03T12:56:45;10.00;99.90
3684;DHT22;1858;48.716;9.648;2023-04-03T13:01:56;10.10;99.90
3684;DHT22;1858;48.716;9.648;2023-04-03T13:04:28;9.80;99.90
3684;DHT22;1858;48.716;9.648;2023-04-03T13:06:57;9.70;99.90
3684;DHT22;1858;48.716;9.648;2023-04-03T13:09:30;9.50;99.90
3684;DHT22;1858;48.716;9.648;2023-04-03T13:12:02;9.60;99.90
3684;DHT22;1858;48.716;9.648;2023-04-03T13:14:31;9.80;99.90
3684;DHT22;1858;48.716;9.648;2023-04-03T13:17:12;10.10;99.90
3684;DHT22;1858;48.716;9.648;2023-04-03T13:19:41;10.20;99.90
3684;DHT22;1858;48.716;9.648;2023-04-03T13:22:38;10.20;99.90
3684;DHT22;1858;48.716;9.648;2023-04-03T13:25:13;10.00;99.90
3684;DHT22;1858;48.716;9.648;2023-04-03T13:27:43;10.10;99.90
3684;DHT22;1858;48.716;9.648;2023-04-03T13:30:23;9.90;99.90
3684;DHT22;1858;48.716;9.648;2023-04-03T13:32:47;9.80;99.90
3684;DHT22;1858;48.716;9.648;2023-04-03T13:35:37;9.70;99.90
3684;DHT22;1858;48.716;9.648;2023-04-03T13:40:55;9.60;99.90
3684;DHT22;1858;48.716;9.648;2023-04-03T13:43:34;9.80;99.90
3684;DHT22;1858;48.716;9.648;2023-04-03T13:48:45;10.30;99.90
3684;DHT22;1858;48.716;9.648;2023-04-03T13:56:21;10.80;99.90
3684;DHT22;1858;48.716;9.648;2023-04-03T13:58:58;10.60;99.90
3684;DHT22;1858;48.716;9.648;2023-04-03T14:01:42;10.40;99.90
3684;DHT22;1858;48.716;9.648;2023-04-03T14:04:20;10.30;99.90
3684;DHT22;1858;48.716;9.648;2023-04-03T14:06:49;10.20;99.90
3684;DHT22;1858;48.716;9.648;2023-04-03T14:09:19;9.60;99.90
3684;DHT22;1858;48.716;9.648;2023-04-03T14:11:57;9.40;99.90
3684;DHT22;1858;48.716;9.648;2023-04-03T14:14:27;9.30;99.90
3684;DHT22;1858;48.716;9.648;2023-04-03T14:17:00;9.40;99.90
3684;DHT22;1858;48.716;9.648;2023-04-03T14:19:32;9.50;99.90
3684;DHT22;1858;48.716;9.648;2023-04-03T14:24:45;9.30;99.90
3684;DHT22;1858;48.716;9.648;2023-04-03T14:27:17;9.30;99.90
3684;DHT22;1858;48.716;9.648;2023-04-03T14:29:45;9.30;99.90
3684;DHT22;1858;48.716;9.648;2023-04-03T14:32:16;9.20;99.90
3684;DHT22;1858;48.716;9.648;2023-04-03T14:34:48;9.50;99.90
3684;DHT22;1858;48.716;9.648;2023-04-03T14:37:20;9.80;99.90
3684;DHT22;1858;48.716;9.648;2023-04-03T14:39:51;9.80;99.90
3684;DHT22;1858;48.716;9.648;2023-04-03T14:42:30;9.80;99.90
3684;DHT22;1858;48.716;9.648;2023-04-03T14:44:55;9.50;99.90
3684;DHT22;1858;48.716;9.648;2023-04-03T14:47:28;9.60;99.90
3684;DHT22;1858;48.716;9.648;2023-04-03T14:50:04;9.50;99.90
3684;DHT22;1858;48.716;9.648;2023-04-03T14:52:42;9.50;99.90
3684;DHT22;1858;48.716;9.648;2023-04-03T14:55:12;9.50;99.90
3684;DHT22;1858;48.716;9.648;2023-04-03T14:57:41;9.50;99.90
3684;DHT22;1858;48.716;9.648;2023-04-03T15:00:16;9.50;99.90
3684;DHT22;1858;48.716;9.648;2023-04-03T15:02:47;9.50;99.90
3684;DHT22;1858;48.716;9.648;2023-04-03T15:05:19;9.60;99.90
3684;DHT22;1858;48.716;9.648;2023-04-03T15:07:52;9.40;99.90
3684;DHT22;1858;48.716;9.648;2023-04-03T15:10:30;9.40;99.90
3684;DHT22;1858;48.716;9.648;2023-04-03T15:12:55;9.30;99.90
3684;DHT22;1858;48.716;9.648;2023-04-03T15:15:24;9.20;99.90
3684;DHT22;1858;48.716;9.648;2023-04-03T15:17:55;9.20;99.90
3684;DHT22;1858;48.716;9.648;2023-04-03T15:20:28;9.30;99.90
3684;DHT22;1858;48.716;9.648;2023-04-03T15:22:59;9.40;99.90
3684;DHT22;1858;48.716;9.648;2023-04-03T15:25:29;9.30;99.90
3684;DHT22;1858;48.716;9.648;2023-04-03T15:27:59;9.30;99.90
3684;DHT22;1858;48.716;9.648;2023-04-03T15:30:28;9.50;99.90
3684;DHT22;1858;48.716;9.648;2023-04-03T15:32:57;9.40;99.90
3684;DHT22;1858;48.716;9.648;2023-04-03T15:35:25;9.40;99.90
3684;DHT22;1858;48.716;9.648;2023-04-03T15:37:54;9.10;99.90
3684;DHT22;1858;48.716;9.648;2023-04-03T15:40:23;9.10;99.90
3684;DHT22;1858;48.716;9.648;2023-04-03T15:42:53;8.70;99.90
3684;DHT22;1858;48.716;9.648;2023-04-03T15:45:26;8.50;99.90
3684;DHT22;1858;48.716;9.648;2023-04-03T15:47:55;8.20;99.90
3684;DHT22;1858;48.716;9.648;2023-04-03T15:50:24;8.20;99.90
3684;DHT22;1858;48.716;9.648;2023-04-03T15:52:55;8.30;99.90
3684;DHT22;1858;48.716;9.648;2023-04-03T15:55:27;8.40;99.90
3684;DHT22;1858;48.716;9.648;2023-04-03T15:57:56;8.50;99.90
3684;DHT22;1858;48.716;9.648;2023-04-03T16:00:26;8.70;99.90
3684;DHT22;1858;48.716;9.648;2023-04-03T16:03:11;8.90;99.90
3684;DHT22;1858;48.716;9.648;2023-04-03T16:05:27;8.90;99.90
3684;DHT22;1858;48.716;9.648;2023-04-03T16:07:57;8.90;99.90
3684;DHT22;1858;48.716;9.648;2023-04-03T16:10:27;9.10;99.90
3684;DHT22;1858;48.716;9.648;2023-04-03T16:12:56;8.90;99.90
3684;DHT22;1858;48.716;9.648;2023-04-03T16:15:25;8.70;99.90
3684;DHT22;1858;48.716;9.648;2023-04-03T16:17:54;8.80;99.90
3684;DHT22;1858;48.716;9.648;2023-04-03T16:20:23;8.60;99.90
3684;DHT22;1858;48.716;9.648;2023-04-03T16:22:52;8.60;99.90
3684;DHT22;1858;48.716;9.648;2023-04-03T16:25:21;8.40;99.90
3684;DHT22;1858;48.716;9.648;2023-04-03T16:27:53;8.20;99.90
3684;DHT22;1858;48.716;9.648;2023-04-03T16:30:22;8.00;99.90
3684;DHT22;1858;48.716;9.648;2023-04-03T16:32:51;7.90;99.90
3684;DHT22;1858;48.716;9.648;2023-04-03T16:35:21;8.00;99.90
3684;DHT22;1858;48.716;9.648;2023-04-03T16:37:50;8.00;99.90
3684;DHT22;1858;48.716;9.648;2023-04-03T16:40:19;8.00;99.90
3684;DHT22;1858;48.716;9.648;2023-04-03T16:42:50;8.10;99.90
3684;DHT22;1858;48.716;9.648;2023-04-03T16:45:19;8.20;99.90
3684;DHT22;1858;48.716;9.648;2023-04-03T16:47:48;8.10;99.90
3684;DHT22;1858;48.716;9.648;2023-04-03T16:50:17;8.10;99.90
3684;DHT22;1858;48.716;9.648;2023-04-03T16:52:46;8.10;99.90
3684;DHT22;1858;48.716;9.648;2023-04-03T16:55:14;8.00;99.90
3684;DHT22;1858;48.716;9.648;2023-04-03T16:57:46;8.00;99.90
3684;DHT22;1858;48.716;9.648;2023-04-03T17:00:20;8.00;99.90
3684;DHT22;1858;48.716;9.648;2023-04-03T17:02:48;7.90;99.90
3684;DHT22;1858;48.716;9.648;2023-04-03T17:05:17;7.80;99.90
3684;DHT22;1858;48.716;9.648;2023-04-03T17:07:50;7.70;99.90
3684;DHT22;1858;48.716;9.648;2023-04-03T17:10:19;7.70;99.90
3684;DHT22;1858;48.716;9.648;2023-04-03T17:12:48;7.70;99.90
3684;DHT22;1858;48.716;9.648;2023-04-03T17:15:17;7.60;99.90
3684;DHT22;1858;48.716;9.648;2023-04-03T17:17:49;7.60;99.90
3684;DHT22;1858;48.716;9.648;2023-04-03T17:20:19;7.50;99.90
3684;DHT22;1858;48.716;9.648;2023-04-03T17:22:48;7.50;99.90
3684;DHT22;1858;48.716;9.648;2023-04-03T17:25:17;7.50;99.90
3684;DHT22;1858;48.716;9.648;2023-04-03T17:27:45;7.50;99.90
3684;DHT22;1858;48.716;9.648;2023-04-03T17:30:14;7.50;99.90
3684;DHT22;1858;48.716;9.648;2023-04-03T17:32:50;7.50;99.90
3684;DHT22;1858;48.716;9.648;2023-04-03T17:35:16;7.50;99.90
3684;DHT22;1858;48.716;9.648;2023-04-03T17:37:45;7.50;99.90
3684;DHT22;1858;48.716;9.648;2023-04-03T17:40:17;7.50;99.90
3684;DHT22;1858;48.716;9.648;2023-04-03T17:42:48;7.40;99.90
3684;DHT22;1858;48.716;9.648;2023-04-03T17:45:16;7.40;99.90
3684;DHT22;1858;48.716;9.648;2023-04-03T17:47:45;7.30;99.90
3684;DHT22;1858;48.716;9.648;2023-04-03T17:50:14;7.30;99.90
3684;DHT22;1858;48.716;9.648;2023-04-03T17:52:43;7.30;99.90
3684;DHT22;1858;48.716;9.648;2023-04-03T17:55:12;7.20;99.90
3684;DHT22;1858;48.716;9.648;2023-04-03T17:57:43;7.10;99.90
3684;DHT22;1858;48.716;9.648;2023-04-03T18:00:13;7.00;99.90
3684;DHT22;1858;48.716;9.648;2023-04-03T18:02:42;6.90;99.90
3684;DHT22;1858;48.716;9.648;2023-04-03T18:05:11;6.90;99.90
3684;DHT22;1858;48.716;9.648;2023-04-03T18:07:39;6.80;99.90
3684;DHT22;1858;48.716;9.648;2023-04-03T18:10:09;6.80;99.90
3684;DHT22;1858;48.716;9.648;2023-04-03T18:12:39;6.70;99.90
3684;DHT22;1858;48.716;9.648;2023-04-03T18:15:10;6.70;99.90
3684;DHT22;1858;48.716;9.648;2023-04-03T18:17:38;6.70;99.90
3684;DHT22;1858;48.716;9.648;2023-04-03T18:20:07;6.60;99.90
3684;DHT22;1858;48.716;9.648;2023-04-03T18:22:38;6.70;99.90
3684;DHT22;1858;48.716;9.648;2023-04-03T18:25:07;6.70;99.90
3684;DHT22;1858;48.716;9.648;2023-04-03T18:27:37;6.60;99.90
3684;DHT22;1858;48.716;9.648;2023-04-03T18:30:09;6.60;99.90
3684;DHT22;1858;48.716;9.648;2023-04-03T18:32:38;6.70;99.90
3684;DHT22;1858;48.716;9.648;2023-04-03T18:35:08;6.70;99.90
3684;DHT22;1858;48.716;9.648;2023-04-03T18:37:37;6.60;99.90